Time;durP1;ratioP1;P1;durP2;ratioP2;P2;SDS_P1;SDS_P2;PMS_P1;PMS_P2;Temp;Humidity;BMP_temperature;BMP_pressure;BME280_temperature;BME280_humidity;BME280_pressure;Samples;Min_cycle;Max_cycle;Signal;HPM_P1;HPM_P2
2022/11/16 00:01:06;;;;;;;8.55;5.70;;;;;;;10.58;100.00;99808.09;5064375;28;20037;-77
2022/11/16 00:03:32;;;;;;;6.75;5.43;;;;;;;10.60;100.00;99808.06;5059987;28;20045;-77
2022/11/16 00:06:00;;;;;;;8.35;5.72;;;;;;;10.57;100.00;99809.03;5072946;28;20036;-77
2022/11/16 00:08:28;;;;;;;9.25;6.15;;;;;;;10.58;100.00;99818.69;5074251;28;20081;-77
2022/11/16 00:10:53;;;;;;;7.63;5.50;;;;;;;10.57;100.00;99798.44;5074222;28;20047;-77
2022/11/16 00:13:19;;;;;;;8.13;5.55;;;;;;;10.58;100.00;99805.44;5074087;28;20036;-77
2022/11/16 00:15:55;;;;;;;7.97;5.95;;;;;;;10.57;100.00;99813.47;5074458;28;20040;-77
2022/11/16 00:18:21;;;;;;;11.10;5.70;;;;;;;10.57;100.00;99809.03;5074054;28;20044;-78
2022/11/16 00:20:46;;;;;;;8.63;6.10;;;;;;;10.62;100.00;99822.09;5073157;28;20029;-79
2022/11/16 00:23:11;;;;;;;8.85;5.90;;;;;;;10.62;100.00;99822.09;5074196;28;20063;-79
2022/11/16 00:25:37;;;;;;;7.85;6.50;;;;;;;10.63;100.00;99815.88;5071827;28;20040;-78
2022/11/16 00:28:02;;;;;;;10.20;6.68;;;;;;;10.63;100.00;99819.41;5062509;28;20443;-78
2022/11/16 00:30:28;;;;;;;9.70;6.65;;;;;;;10.63;100.00;99810.56;5072560;28;20115;-78
2022/11/16 00:32:53;;;;;;;8.50;6.95;;;;;;;10.63;100.00;99813.22;5073512;28;20439;-78
2022/11/16 00:35:19;;;;;;;7.15;6.07;;;;;;;10.64;100.00;99807.03;5081324;28;20068;-78
2022/11/16 00:37:44;;;;;;;7.85;6.38;;;;;;;10.62;100.00;99803.56;5072322;28;20068;-78
2022/11/16 00:40:12;;;;;;;8.70;6.53;;;;;;;10.61;100.00;99804.47;5072442;28;20045;-77
2022/11/16 00:42:37;;;;;;;9.43;5.95;;;;;;;10.60;100.00;99797.47;5073675;28;20033;-78
2022/11/16 00:45:03;;;;;;;7.38;6.00;;;;;;;10.61;100.00;99789.47;5072326;28;20388;-78
2022/11/16 00:47:29;;;;;;;6.70;5.93;;;;;;;10.59;100.00;99785.16;5073513;28;20047;-77
2022/11/16 00:49:54;;;;;;;8.40;6.53;;;;;;;10.59;100.00;99801.03;5072414;28;20036;-78
2022/11/16 00:52:20;;;;;;;8.05;6.68;;;;;;;10.57;100.00;99806.38;5088952;28;20086;-77
2022/11/16 00:54:46;;;;;;;11.27;7.50;;;;;;;10.60;100.00;99816.84;5059521;28;20032;-77
2022/11/16 00:57:11;;;;;;;7.68;6.20;;;;;;;10.59;100.00;99795.75;5060595;28;20044;-77
2022/11/16 00:59:37;;;;;;;10.02;7.30;;;;;;;10.59;100.00;99777.22;5081783;28;20041;-77
2022/11/16 01:02:02;;;;;;;12.95;6.72;;;;;;;10.61;100.00;99804.47;5071885;28;20094;-77
2022/11/16 01:04:28;;;;;;;7.47;6.15;;;;;;;10.61;100.00;99794.78;5072529;28;20135;-77
2022/11/16 01:06:53;;;;;;;7.80;6.25;;;;;;;10.61;100.00;99781.53;5088641;28;20059;-77
2022/11/16 01:09:19;;;;;;;7.78;5.93;;;;;;;10.60;100.00;99778.94;5073402;28;20174;-77
2022/11/16 01:14:30;;;;;;;8.23;6.60;;;;;;;10.60;100.00;99777.13;5071189;28;20063;-77
2022/11/16 01:16:55;;;;;;;7.78;6.20;;;;;;;10.61;100.00;99783.28;5051490;28;20045;-77
2022/11/16 01:19:21;;;;;;;7.63;6.15;;;;;;;10.60;100.00;99786.88;5079394;28;20199;-77
2022/11/16 01:21:47;;;;;;;10.60;7.28;;;;;;;10.62;100.00;99790.34;5088241;28;20451;-77
2022/11/16 01:24:12;;;;;;;7.65;6.18;;;;;;;10.60;100.00;99769.19;5073018;28;20480;-77
2022/11/16 01:26:38;;;;;;;9.25;6.82;;;;;;;10.61;100.00;99759.47;5054763;28;20365;-78
2022/11/16 01:29:04;;;;;;;8.75;6.30;;;;;;;10.63;100.00;99763.81;5087989;28;20036;-77
2022/11/16 01:31:34;;;;;;;12.73;6.65;;;;;;;10.60;100.00;99773.63;5056325;28;20372;-77
2022/11/16 01:34:01;;;;;;;8.43;6.38;;;;;;;10.61;100.00;99773.59;5071026;28;20119;-77
2022/11/16 01:36:28;;;;;;;8.77;6.50;;;;;;;10.60;100.00;99760.41;5072865;28;20496;-77
2022/11/16 01:38:56;;;;;;;7.07;6.00;;;;;;;10.60;100.00;99766.56;5072579;28;20068;-77
2022/11/16 01:41:26;;;;;;;8.20;6.13;;;;;;;10.60;100.00;99758.59;5041642;28;20050;-77
2022/11/16 01:44:25;;;;;;;7.85;6.05;;;;;;;10.60;100.00;99755.97;5071628;28;20061;-77
2022/11/16 01:46:53;;;;;;;8.07;6.25;;;;;;;10.63;100.00;99762.91;5073863;28;20041;-78
2022/11/16 01:49:22;;;;;;;9.45;6.45;;;;;;;10.63;100.00;99752.31;5085950;28;20136;-77
2022/11/16 01:51:56;;;;;;;8.02;6.43;;;;;;;10.63;100.00;99744.38;5087643;28;20035;-78
2022/11/16 01:54:25;;;;;;;10.85;6.05;;;;;;;10.61;100.00;99749.75;5070839;28;20067;-78
2022/11/16 01:56:56;;;;;;;7.97;6.32;;;;;;;10.63;100.00;99747.91;5085492;28;20033;-77
2022/11/16 01:59:30;;;;;;;9.13;6.43;;;;;;;10.64;100.00;99756.72;5078321;28;20132;-77
2022/11/16 02:02:01;;;;;;;10.65;7.22;;;;;;;10.66;100.00;99749.59;5083695;28;20036;-78
2022/11/16 02:04:28;;;;;;;8.15;7.28;;;;;;;10.66;100.00;99745.16;5086408;28;20040;-78
2022/11/16 02:07:05;;;;;;;9.63;6.65;;;;;;;10.67;100.00;99748.66;5087668;28;20231;-78
2022/11/16 02:09:57;;;;;;;10.88;6.65;;;;;;;10.68;100.00;99751.25;5087604;28;20554;-77
2022/11/16 02:12:59;;;;;;;10.67;6.93;;;;;;;10.68;100.00;99740.66;5057930;28;20067;-77
2022/11/16 02:15:43;;;;;;;9.82;7.93;;;;;;;10.68;100.00;99759.19;5068242;28;20113;-77
2022/11/16 02:18:35;;;;;;;8.73;7.05;;;;;;;10.69;100.00;99742.38;5084415;28;20029;-78
2022/11/16 02:21:08;;;;;;;11.02;7.10;;;;;;;10.72;100.00;99739.59;5087240;28;20170;-78
2022/11/16 02:23:48;;;;;;;10.38;7.20;;;;;;;10.72;100.00;99742.25;5071682;28;20064;-78
2022/11/16 02:26:41;;;;;;;10.60;7.13;;;;;;;10.73;100.00;99738.69;5064171;28;20108;-78
2022/11/16 02:29:30;;;;;;;9.20;6.47;;;;;;;10.72;100.00;99736.94;5084578;28;20042;-78
2022/11/16 02:32:17;;;;;;;9.55;6.85;;;;;;;10.74;100.00;99739.53;5070230;28;20115;-78
2022/11/16 02:35:26;;;;;;;9.55;6.47;;;;;;;10.74;100.00;99739.53;5054347;28;20044;-78
2022/11/16 02:38:00;;;;;;;9.43;6.57;;;;;;;10.74;100.00;99735.09;5086362;28;20115;-78
2022/11/16 02:40:30;;;;;;;7.18;6.20;;;;;;;10.75;100.00;99738.59;5070174;28;20036;-78
2022/11/16 02:43:08;;;;;;;9.65;7.03;;;;;;;10.74;100.00;99745.69;5069986;28;20028;-77
2022/11/16 02:45:39;;;;;;;7.97;6.47;;;;;;;10.74;100.00;99742.19;5086846;28;20052;-78
2022/11/16 02:48:11;;;;;;;9.52;6.85;;;;;;;10.76;100.00;99754.44;5070049;28;20040;-77
2022/11/16 02:50:40;;;;;;;8.15;6.85;;;;;;;10.78;100.00;99751.75;5069869;28;20051;-78
2022/11/16 02:53:05;;;;;;;10.27;7.40;;;;;;;10.78;100.00;99751.75;5069630;28;20012;-78
2022/11/16 02:55:34;;;;;;;8.65;6.00;;;;;;;10.77;100.00;99750.84;5070079;28;20037;-77
2022/11/16 02:58:02;;;;;;;10.10;6.72;;;;;;;10.80;100.00;99755.16;5064182;28;20032;-78
2022/11/16 03:00:42;;;;;;;9.65;6.60;;;;;;;10.79;100.00;99747.31;5062718;28;20028;-77
2022/11/16 03:03:20;;;;;;;10.32;6.63;;;;;;;10.79;100.00;99749.94;5068249;28;20028;-78
2022/11/16 03:05:53;;;;;;;9.13;5.72;;;;;;;10.78;100.00;99746.44;5086421;28;20028;-78
2022/11/16 03:08:25;;;;;;;10.02;5.97;;;;;;;10.77;100.00;99739.41;5069604;28;20025;-78
2022/11/16 03:13:41;;;;;;;6.57;5.10;;;;;;;10.74;100.00;99750.13;5069451;28;20039;-77
2022/11/16 03:16:15;;;;;;;8.52;5.32;;;;;;;10.72;100.00;99754.63;5059916;28;20036;-78
2022/11/16 03:18:43;;;;;;;8.52;4.97;;;;;;;10.70;100.00;99756.47;5069320;28;20067;-78
2022/11/16 03:21:13;;;;;;;7.65;5.38;;;;;;;10.69;100.00;99760.03;5086379;28;20488;-78
2022/11/16 03:23:41;;;;;;;7.25;4.95;;;;;;;10.65;100.00;99751.34;5069528;28;20028;-78
2022/11/16 03:26:09;;;;;;;6.18;5.05;;;;;;;10.62;100.00;99748.81;5064651;28;20029;-76
2022/11/16 03:28:57;;;;;;;5.55;4.65;;;;;;;10.62;100.00;99758.56;5063441;28;20503;-76
2022/11/16 03:31:42;;;;;;;7.07;4.97;;;;;;;10.58;100.00;99754.28;5069320;28;20044;-76
2022/11/16 03:34:17;;;;;;;7.68;4.40;;;;;;;10.58;100.00;99754.28;5085867;28;20037;-77
2022/11/16 03:36:45;;;;;;;7.07;4.10;;;;;;;10.55;100.00;99752.63;5086022;28;20051;-76
2022/11/16 03:39:18;;;;;;;5.47;4.45;;;;;;;10.53;100.00;99765.94;5065093;28;20040;-76
2022/11/16 03:41:47;;;;;;;5.10;3.92;;;;;;;10.49;100.00;99758.19;5061738;28;20473;-76
2022/11/16 03:44:16;;;;;;;5.50;4.18;;;;;;;10.47;100.00;99763.53;5061350;28;20033;-76
2022/11/16 03:46:43;;;;;;;6.32;3.78;;;;;;;10.45;100.00;99769.78;5069393;28;20020;-76
2022/11/16 03:49:10;;;;;;;5.72;3.33;;;;;;;10.45;100.00;99781.25;5056774;28;20048;-77
2022/11/16 03:51:37;;;;;;;10.07;3.60;;;;;;;10.43;100.00;99774.28;5056639;28;20124;-77
2022/11/16 03:54:03;;;;;;;4.72;3.65;;;;;;;10.40;100.00;99779.69;5069086;28;20199;-77
2022/11/16 03:56:30;;;;;;;5.13;3.35;;;;;;;10.35;100.00;99790.47;5054105;28;20117;-77
2022/11/16 03:58:55;;;;;;;4.38;3.45;;;;;;;10.31;100.00;99787.06;5057402;28;20033;-77
2022/11/16 04:01:21;;;;;;;4.68;3.28;;;;;;;10.31;100.00;99796.78;5058136;28;20132;-77
2022/11/16 04:03:47;;;;;;;5.25;3.05;;;;;;;10.25;100.00;99791.69;5060817;28;20106;-77
2022/11/16 04:25:54;;;;;;;4.13;2.40;;;;;;;9.90;100.00;99812.34;5070036;28;20471;-77
2022/11/16 04:28:25;;;;;;;5.07;2.13;;;;;;;9.86;100.00;99813.38;5068620;28;20057;-77
2022/11/16 04:39:28;;;;;;;3.22;1.95;;;;;;;9.76;100.00;99817.25;5058043;28;20047;-77
2022/11/16 04:42:17;;;;;;;5.80;2.30;;;;;;;9.74;100.00;99811.16;5039830;28;20392;-77
2022/11/16 04:47:43;;;;;;;4.00;1.90;;;;;;;9.71;100.00;99814.78;5068455;28;20029;-78
2022/11/16 04:50:11;;;;;;;6.07;2.17;;;;;;;9.68;100.00;99823.69;5052719;28;20051;-78
2022/11/16 04:52:38;;;;;;;7.20;2.30;;;;;;;9.65;100.00;99822.94;5071276;28;20124;-77
2022/11/16 04:55:08;;;;;;;5.80;2.10;;;;;;;9.64;100.00;99829.13;5052404;28;20036;-77
2022/11/16 04:57:34;;;;;;;4.10;1.90;;;;;;;9.62;100.00;99825.69;5053185;28;20045;-78
2022/11/16 04:59:59;;;;;;;4.47;2.13;;;;;;;9.61;100.00;99830.09;5056434;28;20032;-78
2022/11/16 05:02:25;;;;;;;5.53;2.20;;;;;;;9.55;100.00;99832.94;5046022;28;20036;-77
2022/11/16 05:04:55;;;;;;;3.88;1.95;;;;;;;9.52;100.00;99842.75;5056252;28;20028;-77
2022/11/16 05:07:22;;;;;;;9.70;2.20;;;;;;;9.48;100.00;99842.84;5070528;28;20031;-77
2022/11/16 05:09:49;;;;;;;6.32;2.42;;;;;;;9.43;100.00;99847.44;5056276;28;20135;-78
2022/11/16 05:12:21;;;;;;;6.70;2.50;;;;;;;9.44;100.00;99845.66;5067671;28;20037;-77
2022/11/16 05:14:49;;;;;;;8.45;2.33;;;;;;;9.41;100.00;99848.41;5055220;28;20032;-77
2022/11/16 05:17:17;;;;;;;6.43;2.20;;;;;;;9.36;100.00;99850.31;5063957;28;20027;-78
2022/11/16 05:22:32;;;;;;;9.68;2.35;;;;;;;9.34;100.00;99844.22;5067440;28;20032;-77
2022/11/16 05:24:59;;;;;;;7.97;2.28;;;;;;;9.31;100.00;99847.84;5067641;28;20044;-77
2022/11/16 05:27:25;;;;;;;4.97;1.92;;;;;;;9.29;100.00;99849.66;5069044;28;20076;-77
2022/11/16 05:29:52;;;;;;;5.60;2.33;;;;;;;9.24;100.00;99855.09;5051845;28;20028;-77
2022/11/16 05:32:22;;;;;;;6.70;2.47;;;;;;;9.21;100.00;99855.19;5053544;28;20499;-77
2022/11/16 05:34:54;;;;;;;5.10;2.30;;;;;;;9.20;100.00;99849.97;5059225;28;20163;-77
2022/11/16 05:37:25;;;;;;;6.03;2.08;;;;;;;9.15;100.00;99847.47;5073871;28;20131;-77
2022/11/16 05:39:51;;;;;;;4.60;1.98;;;;;;;9.12;100.00;99850.19;5058363;28;20037;-78
2022/11/16 05:42:19;;;;;;;5.90;2.38;;;;;;;9.08;100.00;99843.28;5067218;28;20468;-77
2022/11/16 05:44:44;;;;;;;7.07;2.17;;;;;;;9.04;100.00;99845.16;5067068;28;20135;-77
2022/11/16 05:47:10;;;;;;;7.47;2.20;;;;;;;9.02;100.00;99846.13;5053965;28;20497;-77
2022/11/16 05:49:36;;;;;;;5.95;2.35;;;;;;;8.97;100.00;99846.25;5067184;28;20098;-77
2022/11/16 05:52:02;;;;;;;6.32;2.28;;;;;;;8.94;100.00;99843.72;5050200;28;20513;-78
2022/11/16 05:54:27;;;;;;;12.07;2.58;;;;;;;8.89;100.00;99842.13;5053237;28;20139;-77
2022/11/16 05:56:53;;;;;;;8.88;2.30;;;;;;;8.81;100.00;99843.25;5053354;28;20028;-78
2022/11/16 05:59:22;;;;;;;8.63;2.65;;;;;;;8.77;100.00;99840.72;5050371;28;20039;-77
2022/11/16 06:01:51;;;;;;;6.53;2.10;;;;;;;8.72;100.00;99843.50;5070901;28;20115;-77
2022/11/16 06:04:17;;;;;;;5.28;2.00;;;;;;;8.70;100.00;99847.09;5050044;28;20120;-77
2022/11/16 06:06:42;;;;;;;9.65;2.40;;;;;;;8.68;100.00;99859.47;5075529;28;20028;-77
2022/11/16 06:09:13;;;;;;;5.07;2.22;;;;;;;8.64;100.00;99860.50;5071636;28;20028;-77
2022/11/16 06:11:39;;;;;;;6.13;2.22;;;;;;;8.56;100.00;99856.31;5075772;28;20057;-77
2022/11/16 06:14:05;;;;;;;4.65;2.33;;;;;;;8.52;100.00;99857.28;5072304;28;20033;-77
2022/11/16 06:16:32;;;;;;;11.73;2.45;;;;;;;8.46;100.00;99860.13;5071542;28;20029;-77
2022/11/16 06:19:00;;;;;;;5.88;2.47;;;;;;;8.42;100.00;99857.63;5071298;28;20032;-77
2022/11/16 06:21:27;;;;;;;10.68;2.65;;;;;;;8.40;100.00;99868.19;5077669;28;20040;-77
2022/11/16 06:23:53;;;;;;;5.68;2.67;;;;;;;8.38;100.00;99870.88;5068541;28;20016;-77
2022/11/16 06:26:18;;;;;;;7.05;2.60;;;;;;;8.35;100.00;99870.94;5047103;28;20484;-77
2022/11/16 06:28:45;;;;;;;9.68;3.15;;;;;;;8.32;100.00;99873.66;5032175;28;20138;-77
2022/11/16 06:31:11;;;;;;;6.88;3.17;;;;;;;8.32;100.00;99868.38;5069817;28;20037;-77
2022/11/16 06:33:39;;;;;;;7.63;3.00;;;;;;;8.31;100.00;99881.63;5053887;28;20036;-77
2022/11/16 06:36:11;;;;;;;8.88;3.15;;;;;;;8.29;100.00;99886.94;5065823;28;20017;-77
2022/11/16 06:38:37;;;;;;;9.02;3.20;;;;;;;8.27;100.00;99887.91;5062321;28;20047;-77
2022/11/16 06:41:03;;;;;;;9.15;2.95;;;;;;;8.23;100.00;99895.00;5057962;28;20079;-77
2022/11/16 06:43:33;;;;;;;11.23;3.40;;;;;;;8.21;100.00;99896.84;5056451;28;20049;-77
2022/11/16 06:45:59;;;;;;;9.70;3.30;;;;;;;8.17;100.00;99898.69;5062436;28;20105;-77
2022/11/16 06:48:24;;;;;;;8.77;2.97;;;;;;;8.16;100.00;99901.38;5073959;28;20066;-77
2022/11/16 06:50:51;;;;;;;6.88;3.75;;;;;;;8.13;100.00;99906.72;5073984;28;20030;-77
2022/11/16 06:53:19;;;;;;;12.07;3.38;;;;;;;8.09;100.00;99905.09;5071343;28;20036;-77
2022/11/16 06:55:46;;;;;;;9.43;3.58;;;;;;;8.08;100.00;99911.25;5046289;28;20033;-77
2022/11/16 06:58:12;;;;;;;11.38;3.38;;;;;;;8.08;100.00;99916.53;5073832;28;20025;-77
2022/11/16 07:00:40;;;;;;;7.38;3.17;;;;;;;8.05;100.00;99904.28;5067525;28;20094;-77
2022/11/16 07:03:08;;;;;;;9.60;3.33;;;;;;;8.04;100.00;99915.75;5062451;28;20025;-77
2022/11/16 07:05:38;;;;;;;7.20;3.13;;;;;;;8.03;100.00;99913.16;5052514;28;20040;-77
2022/11/16 07:08:05;;;;;;;12.38;3.95;;;;;;;8.01;100.00;99918.47;5055083;28;20079;-77
2022/11/16 07:10:30;;;;;;;9.25;3.70;;;;;;;8.01;100.00;99914.94;5071374;28;20448;-77
2022/11/16 07:13:00;;;;;;;12.75;4.15;;;;;;;7.99;100.00;99915.00;5065019;28;20033;-77
2022/11/16 07:15:26;;;;;;;10.40;4.25;;;;;;;7.98;100.00;99913.25;5061473;28;20025;-77
2022/11/16 07:17:51;;;;;;;9.70;3.88;;;;;;;7.95;100.00;99921.25;5053305;28;20056;-77
2022/11/16 07:20:17;;;;;;;12.70;3.40;;;;;;;7.94;100.00;99916.91;5072208;28;20518;-77
2022/11/16 07:22:43;;;;;;;10.52;3.83;;;;;;;7.92;100.00;99927.47;5060671;28;20123;-77
2022/11/16 07:25:11;;;;;;;8.00;3.35;;;;;;;7.91;100.00;99927.50;5069862;28;20396;-77
2022/11/16 07:27:37;;;;;;;9.15;3.35;;;;;;;7.90;100.00;99921.38;5043179;28;20048;-77
2022/11/16 07:30:04;;;;;;;5.63;3.15;;;;;;;7.87;100.00;99921.47;5069384;28;20024;-77
2022/11/16 07:32:58;;;;;;;11.00;3.45;;;;;;;7.88;100.00;99941.63;5083353;28;20063;-77
2022/11/16 07:35:49;;;;;;;8.48;3.40;;;;;;;7.90;100.00;99942.47;5061782;28;20136;-78
2022/11/16 07:38:16;;;;;;;9.32;3.17;;;;;;;7.89;100.00;99947.78;5070794;28;20460;-73
2022/11/16 07:40:44;;;;;;;9.90;3.60;;;;;;;7.91;100.00;99946.84;5087235;28;20039;-73
2022/11/16 07:43:14;;;;;;;8.80;3.15;;;;;;;7.90;100.00;99946.88;5068457;28;20024;-73
2022/11/16 07:46:17;;;;;;;10.67;3.77;;;;;;;7.91;100.00;99961.78;5050694;28;20100;-73
2022/11/16 07:48:43;;;;;;;11.07;3.53;;;;;;;7.91;100.00;99965.31;5062265;28;20491;-73
2022/11/16 07:51:27;;;;;;;14.40;4.10;;;;;;;7.91;100.00;99962.66;5070558;28;20147;-73
2022/11/16 07:54:12;;;;;;;15.23;3.78;;;;;;;7.93;100.00;99952.91;5088829;28;20041;-73
2022/11/16 07:56:39;;;;;;;10.57;3.97;;;;;;;7.94;100.00;99967.00;5071323;28;20127;-73
2022/11/16 07:59:05;;;;;;;15.48;4.22;;;;;;;7.94;100.00;99954.66;5070627;28;20037;-73
2022/11/16 08:01:34;;;;;;;13.38;4.68;;;;;;;7.96;100.00;99959.88;5080290;28;20032;-73
2022/11/16 08:04:00;;;;;;;11.30;4.15;;;;;;;8.00;100.00;99961.56;5078819;28;20521;-73
2022/11/16 08:06:28;;;;;;;18.70;4.93;;;;;;;8.02;100.00;99958.88;5089662;28;20036;-73
2022/11/16 08:08:55;;;;;;;14.23;4.63;;;;;;;8.05;100.00;99966.72;5070655;28;20040;-73
2022/11/16 08:11:20;;;;;;;10.73;4.50;;;;;;;8.06;100.00;99971.97;5049280;28;20382;-73
2022/11/16 08:13:46;;;;;;;15.48;4.88;;;;;;;8.10;100.00;99967.47;5051558;28;20054;-73
2022/11/16 08:16:15;;;;;;;11.50;4.50;;;;;;;8.11;100.00;99971.81;5080807;28;20530;-73
2022/11/16 08:18:43;;;;;;;13.25;4.40;;;;;;;8.15;100.00;99979.63;5068848;28;20040;-73
2022/11/16 08:21:14;;;;;;;22.05;5.10;;;;;;;8.21;100.00;99977.72;5072102;28;20345;-73
2022/11/16 08:23:43;;;;;;;11.55;4.40;;;;;;;8.22;100.00;99972.41;5067982;28;20491;-73
2022/11/16 08:26:17;;;;;;;14.98;4.78;;;;;;;8.25;100.00;99974.09;5061920;28;20040;-73
2022/11/16 08:28:52;;;;;;;18.58;4.40;;;;;;;8.27;100.00;99969.66;5067781;28;20021;-73
2022/11/16 08:31:25;;;;;;;15.73;4.20;;;;;;;8.33;100.00;99973.00;5079133;28;20063;-73
2022/11/16 08:33:59;;;;;;;19.58;4.90;;;;;;;8.35;100.00;99967.69;5066013;28;20040;-73
2022/11/16 08:36:24;;;;;;;19.65;4.38;;;;;;;8.39;100.00;99969.34;5079505;28;20118;-73
2022/11/16 08:38:51;;;;;;;14.98;3.90;;;;;;;8.42;100.00;99978.97;5068647;28;20056;-73
2022/11/16 08:41:20;;;;;;;15.95;4.43;;;;;;;8.46;100.00;99965.66;5069035;28;20033;-73
2022/11/16 08:43:46;;;;;;;13.93;3.63;;;;;;;8.51;100.00;99976.97;5068763;28;20035;-73
2022/11/16 08:46:13;;;;;;;13.20;4.22;;;;;;;8.52;100.00;99969.91;5074134;28;20064;-74
2022/11/16 08:48:41;;;;;;;15.70;3.53;;;;;;;8.56;100.00;99975.06;5067292;28;20033;-73
2022/11/16 08:51:11;;;;;;;19.60;4.05;;;;;;;8.58;100.00;99975.88;5074304;28;20044;-74
2022/11/16 08:53:38;;;;;;;16.98;3.33;;;;;;;8.64;100.00;99980.13;5077619;28;20036;-73
2022/11/16 08:56:13;;;;;;;12.35;3.17;;;;;;;8.70;100.00;99977.28;5088762;28;20028;-73
2022/11/16 08:58:45;;;;;;;14.82;3.35;;;;;;;8.70;100.00;99985.22;5062733;28;20028;-74
2022/11/16 09:01:19;;;;;;;13.73;3.03;;;;;;;8.74;100.00;99980.72;5081327;28;20088;-74
2022/11/16 09:03:45;;;;;;;14.85;4.28;;;;;;;8.78;100.00;99985.03;5079931;28;20040;-74
2022/11/16 09:06:12;;;;;;;12.50;3.50;;;;;;;8.81;100.00;99995.50;5090406;28;20119;-74
2022/11/16 09:08:39;;;;;;;11.52;3.20;;;;;;;8.85;100.00;99990.97;5087164;28;20040;-74
2022/11/16 09:11:06;;;;;;;10.25;3.00;;;;;;;8.89;100.00;99996.13;5057054;28;20448;-73
2022/11/16 09:13:34;;;;;;;17.20;3.72;;;;;;;8.93;100.00;99996.94;5087102;28;20035;-74
2022/11/16 09:16:00;;;;;;;11.35;2.88;;;;;;;8.98;100.00;99995.03;5086784;28;20019;-74
2022/11/16 09:18:26;;;;;;;7.78;2.60;;;;;;;9.01;100.00;99995.78;5088190;28;20028;-74
2022/11/16 09:20:52;;;;;;;17.33;3.08;;;;;;;9.04;100.00;100005.38;5088066;28;20067;-78
2022/11/16 09:23:18;;;;;;;11.30;2.83;;;;;;;9.06;100.00;99995.66;5088823;28;20115;-78
2022/11/16 09:25:47;;;;;;;14.02;2.92;;;;;;;9.10;100.00;99993.78;5085588;28;20036;-78
2022/11/16 09:28:20;;;;;;;17.15;2.90;;;;;;;9.11;100.00;100004.31;5088789;28;20062;-78
2022/11/16 09:30:48;;;;;;;15.68;3.47;;;;;;;9.14;100.00;99991.00;5088394;28;20124;-78
2022/11/16 09:33:14;;;;;;;15.55;2.80;;;;;;;9.16;100.00;99997.09;5083504;28;20095;-78
2022/11/16 09:35:40;;;;;;;19.25;3.17;;;;;;;9.22;100.00;99996.06;5078309;28;20456;-78
2022/11/16 09:38:05;;;;;;;12.73;3.10;;;;;;;9.25;100.00;99991.56;5089816;28;20035;-79
2022/11/16 09:40:40;;;;;;;16.05;2.90;;;;;;;9.32;100.00;99991.38;5088331;28;20321;-79
2022/11/16 09:43:24;;;;;;;13.38;2.72;;;;;;;9.38;100.00;99994.69;5089858;28;20027;-79
2022/11/16 09:46:28;;;;;;;13.15;3.10;;;;;;;9.42;100.00;99991.06;5086541;28;20075;-78
2022/11/16 09:48:58;;;;;;;13.23;2.42;;;;;;;9.47;100.00;100004.13;5050316;28;20489;-78
2022/11/16 09:51:28;;;;;;;11.32;3.03;;;;;;;9.52;100.00;99996.03;5082047;28;20094;-78
2022/11/16 09:54:15;;;;;;;17.75;2.42;;;;;;;9.53;99.25;99996.00;5054818;28;20109;-78
2022/11/16 09:56:42;;;;;;;8.35;2.28;;;;;;;9.57;100.00;100002.94;5084552;28;20041;-79
2022/11/16 09:59:08;;;;;;;13.02;2.55;;;;;;;9.63;100.00;100010.66;5063297;28;20025;-78
2022/11/16 10:01:48;;;;;;;9.30;2.33;;;;;;;9.68;99.15;100000.78;5066221;28;20044;-78
2022/11/16 10:04:19;;;;;;;12.98;2.35;;;;;;;9.70;99.43;100006.06;5062741;28;20385;-79
2022/11/16 10:07:01;;;;;;;9.32;2.45;;;;;;;9.73;99.49;100005.09;5048625;28;20036;-79
2022/11/16 10:09:28;;;;;;;7.85;2.28;;;;;;;9.81;99.70;100011.84;5069581;28;20028;-78
2022/11/16 10:12:03;;;;;;;11.13;2.50;;;;;;;9.84;99.04;100019.72;5090591;28;20055;-79
2022/11/16 10:14:56;;;;;;;11.57;2.97;;;;;;;9.90;98.59;100011.56;5068906;28;20040;-79
2022/11/16 10:17:24;;;;;;;13.35;2.33;;;;;;;9.97;97.59;100011.38;5068201;28;20040;-78
2022/11/16 10:20:14;;;;;;;10.85;3.67;;;;;;;10.05;97.54;100004.91;5076651;28;20456;-79
2022/11/16 10:22:52;;;;;;;8.55;2.25;;;;;;;10.11;96.70;99999.41;5069808;28;20083;-79
2022/11/16 10:25:21;;;;;;;15.70;2.50;;;;;;;10.15;96.32;100001.97;5060475;28;20032;-78
2022/11/16 10:27:46;;;;;;;12.57;2.45;;;;;;;10.23;96.51;99997.25;5066753;28;20063;-78
2022/11/16 10:30:20;;;;;;;14.68;2.65;;;;;;;10.31;95.36;99998.78;5070174;28;20392;-79
2022/11/16 10:32:51;;;;;;;9.95;2.78;;;;;;;10.41;96.44;99995.78;5066552;28;20174;-78
2022/11/16 10:35:33;;;;;;;9.32;2.10;;;;;;;10.45;94.26;100002.72;5067742;28;20051;-79
2022/11/16 10:38:01;;;;;;;11.45;2.17;;;;;;;10.52;95.43;99994.50;5071725;28;20027;-79
2022/11/16 10:40:37;;;;;;;13.07;2.50;;;;;;;10.61;93.82;99993.34;5056168;28;20056;-79
2022/11/16 10:43:14;;;;;;;8.18;2.15;;;;;;;10.70;94.59;99992.13;5068573;28;20102;-79
2022/11/16 10:45:51;;;;;;;11.98;2.10;;;;;;;10.75;93.13;99996.31;5059513;28;20054;-79
2022/11/16 10:48:38;;;;;;;7.18;1.90;;;;;;;10.86;93.33;99990.66;5063191;28;20025;-80
2022/11/16 10:51:04;;;;;;;9.85;2.28;;;;;;;10.88;90.87;99995.88;5077923;28;20117;-80
2022/11/16 10:53:38;;;;;;;8.63;2.60;;;;;;;10.92;90.64;99989.56;5053343;28;20025;-80
2022/11/16 10:56:16;;;;;;;10.30;2.20;;;;;;;11.06;91.21;99997.00;5066377;28;20448;-80
2022/11/16 10:58:56;;;;;;;11.73;2.22;;;;;;;11.14;89.16;99997.59;5068329;28;20113;-80
2022/11/16 11:01:35;;;;;;;10.38;2.15;;;;;;;11.21;87.25;99995.56;5062436;28;20546;-80
2022/11/16 11:04:24;;;;;;;6.53;2.08;;;;;;;11.32;89.23;99996.88;5066809;28;20098;-80
2022/11/16 11:06:58;;;;;;;7.30;1.98;;;;;;;11.32;86.51;99996.88;5059377;28;20029;-80
2022/11/16 11:09:37;;;;;;;11.90;2.15;;;;;;;11.43;88.27;99995.63;5054272;28;20056;-80
2022/11/16 11:12:38;;;;;;;7.75;1.92;;;;;;;11.57;86.13;100001.22;5064547;28;21642;-80
2022/11/16 11:15:09;;;;;;;13.98;2.38;;;;;;;11.57;85.87;99988.84;5063880;28;20029;-80
2022/11/16 11:17:48;;;;;;;8.15;1.80;;;;;;;11.53;84.80;99989.03;5062939;28;20104;-79
2022/11/16 11:20:13;;;;;;;10.32;2.40;;;;;;;11.51;86.32;99983.78;5056960;28;20116;-79
2022/11/16 11:22:55;;;;;;;8.35;1.85;;;;;;;11.58;86.20;99987.91;5065631;28;20516;-79
2022/11/16 11:25:31;;;;;;;8.73;2.35;;;;;;;11.65;85.13;99987.66;5068680;28;20408;-79
2022/11/16 11:28:06;;;;;;;10.70;2.33;;;;;;;11.62;83.04;99986.88;5071616;28;20369;-80
2022/11/16 11:30:33;;;;;;;7.03;1.70;;;;;;;11.55;83.80;99984.53;5073697;28;20085;-80
2022/11/16 11:32:59;;;;;;;12.75;2.10;;;;;;;11.55;83.69;99973.94;5077772;28;20012;-79
2022/11/16 11:35:30;;;;;;;7.90;1.80;;;;;;;11.61;81.42;99977.16;5058970;28;20056;-79
2022/11/16 11:37:59;;;;;;;8.15;2.60;;;;;;;11.66;82.69;99963.72;5059967;28;20116;-80
2022/11/16 11:40:26;;;;;;;13.15;2.40;;;;;;;11.59;80.62;99972.84;5052615;28;20033;-79
2022/11/16 11:43:04;;;;;;;9.20;2.30;;;;;;;11.50;81.97;99963.50;5069109;28;20032;-79
2022/11/16 11:45:41;;;;;;;8.15;2.13;;;;;;;11.41;82.32;99967.34;5076212;28;20169;-79
2022/11/16 11:48:16;;;;;;;10.98;2.40;;;;;;;11.35;82.83;99972.91;5077473;28;20151;-79
2022/11/16 11:51:02;;;;;;;9.75;2.53;;;;;;;11.32;83.08;99961.56;5081802;28;20036;-79
2022/11/16 11:53:50;;;;;;;10.32;1.58;;;;;;;11.29;83.70;99970.50;5057923;28;20515;-74
2022/11/16 11:56:16;;;;;;;10.07;2.00;;;;;;;11.24;82.73;99964.50;5060002;28;20488;-74
2022/11/16 11:58:43;;;;;;;14.65;1.60;;;;;;;11.18;82.78;99970.06;5061185;28;20035;-73
2022/11/16 12:01:47;;;;;;;10.82;2.28;;;;;;;11.15;81.64;99962.19;5077098;28;20040;-73
2022/11/16 12:04:48;;;;;;;6.50;1.60;;;;;;;11.11;84.14;99952.66;5088375;28;20094;-73
2022/11/16 12:07:38;;;;;;;6.75;1.98;;;;;;;11.10;83.63;99950.91;5077719;28;20511;-74
2022/11/16 12:10:17;;;;;;;8.50;2.17;;;;;;;11.21;83.77;99948.72;5071079;28;20028;-73
2022/11/16 12:12:52;;;;;;;14.48;2.38;;;;;;;11.26;83.95;99946.75;5066622;28;20044;-74
2022/11/16 12:15:42;;;;;;;9.82;2.17;;;;;;;11.36;83.68;99948.13;5072456;28;20392;-79
2022/11/16 12:18:13;;;;;;;6.90;1.65;;;;;;;11.39;82.37;99940.03;5074426;28;20044;-80
2022/11/16 12:20:45;;;;;;;8.77;2.78;;;;;;;11.46;83.16;99937.16;5070006;28;20059;-79
2022/11/16 12:23:29;;;;;;;10.60;1.90;;;;;;;11.52;83.38;99928.94;5072053;28;20392;-79
2022/11/16 12:26:12;;;;;;;8.45;2.00;;;;;;;11.48;83.23;99924.72;5075879;28;20460;-79